sensor_id;sensor_type;location;lat;lon;timestamp;pressure;altitude;pressure_sealevel;temperature;humidity
47280;BME280;34064;44.942;0.008;2023-02-04T00:02:06;100923.09;;;6.68;54.99
47280;BME280;34064;44.942;0.008;2023-02-04T00:04:34;100922.25;;;6.66;54.77
47280;BME280;34064;44.942;0.008;2023-02-04T00:07:05;100922.38;;;6.62;54.72
47280;BME280;34064;44.942;0.008;2023-02-04T00:09:32;100924.19;;;6.60;54.75
47280;BME280;34064;44.942;0.008;2023-02-04T00:12:00;100927.81;;;6.55;54.82
47280;BME280;34064;44.942;0.008;2023-02-04T00:14:27;100925.25;;;6.52;54.78
47280;BME280;34064;44.942;0.008;2023-02-04T00:16:55;100927.06;;;6.50;54.84
47280;BME280;34064;44.942;0.008;2023-02-04T00:19:22;100917.41;;;6.49;54.51
47280;BME280;34064;44.942;0.008;2023-02-04T00:21:50;100923.59;;;6.48;54.50
47280;BME280;34064;44.942;0.008;2023-02-04T00:24:17;100926.41;;;6.42;54.75
47280;BME280;34064;44.942;0.008;2023-02-04T00:26:45;100931.78;;;6.37;54.55
47280;BME280;34064;44.942;0.008;2023-02-04T00:29:12;100930.13;;;6.33;54.51
47280;BME280;34064;44.942;0.008;2023-02-04T00:31:40;100930.16;;;6.32;54.52
47280;BME280;34064;44.942;0.008;2023-02-04T00:34:08;100923.22;;;6.29;54.68
47280;BME280;34064;44.942;0.008;2023-02-04T00:36:35;100922.41;;;6.26;54.75
47280;BME280;34064;44.942;0.008;2023-02-04T00:39:03;100921.59;;;6.23;54.71
47280;BME280;34064;44.942;0.008;2023-02-04T00:41:31;100921.75;;;6.17;54.82
47280;BME280;34064;44.942;0.008;2023-02-04T00:43:58;100931.53;;;6.12;54.75
47280;BME280;34064;44.942;0.008;2023-02-04T00:46:26;100928.16;;;6.07;54.71
47280;BME280;34064;44.942;0.008;2023-02-04T00:48:53;100925.56;;;6.04;54.71
47280;BME280;34064;44.942;0.008;2023-02-04T00:51:21;100922.09;;;6.02;54.68
47280;BME280;34064;44.942;0.008;2023-02-04T00:53:49;100916.00;;;6.00;54.50
47280;BME280;34064;44.942;0.008;2023-02-04T00:56:15;100926.59;;;5.97;54.56
47280;BME280;34064;44.942;0.008;2023-02-04T00:58:42;100926.66;;;5.95;54.73
47280;BME280;34064;44.942;0.008;2023-02-04T01:01:08;100925.06;;;5.86;54.66
47280;BME280;34064;44.942;0.008;2023-02-04T01:03:34;100930.47;;;5.82;54.70
47280;BME280;34064;44.942;0.008;2023-02-04T01:06:01;100929.66;;;5.78;54.72
47280;BME280;34064;44.942;0.008;2023-02-04T01:08:27;100922.66;;;5.77;54.68
47280;BME280;34064;44.942;0.008;2023-02-04T01:10:54;100932.34;;;5.75;54.81
47280;BME280;34064;44.942;0.008;2023-02-04T01:13:21;100928.88;;;5.74;54.82
47280;BME280;34064;44.942;0.008;2023-02-04T01:15:47;100930.72;;;5.71;54.71
47280;BME280;34064;44.942;0.008;2023-02-04T01:18:14;100927.28;;;5.66;54.76
47280;BME280;34064;44.942;0.008;2023-02-04T01:20:41;100930.09;;;5.58;54.86
47280;BME280;34064;44.942;0.008;2023-02-04T01:23:08;100933.75;;;5.52;54.87
47280;BME280;34064;44.942;0.008;2023-02-04T01:25:35;100932.06;;;5.48;54.68
47280;BME280;34064;44.942;0.008;2023-02-04T01:28:02;100927.69;;;5.47;54.93
47280;BME280;34064;44.942;0.008;2023-02-04T01:30:30;100926.84;;;5.46;54.93
47280;BME280;34064;44.942;0.008;2023-02-04T01:32:57;100930.38;;;5.44;54.85
47280;BME280;34064;44.942;0.008;2023-02-04T01:35:23;100927.84;;;5.41;54.71
47280;BME280;34064;44.942;0.008;2023-02-04T01:37:50;100933.16;;;5.38;54.74
47280;BME280;34064;44.942;0.008;2023-02-04T01:40:16;100932.38;;;5.34;54.95
47280;BME280;34064;44.942;0.008;2023-02-04T01:42:43;100945.59;;;5.33;55.04
47280;BME280;34064;44.942;0.008;2023-02-04T01:45:09;100942.16;;;5.27;54.88
47280;BME280;34064;44.942;0.008;2023-02-04T01:47:37;100944.84;;;5.24;54.94
47280;BME280;34064;44.942;0.008;2023-02-04T01:50:04;100944.94;;;5.21;54.93
47280;BME280;34064;44.942;0.008;2023-02-04T01:52:35;100953.78;;;5.19;54.88
47280;BME280;34064;44.942;0.008;2023-02-04T01:55:03;100945.06;;;5.13;54.81
47280;BME280;34064;44.942;0.008;2023-02-04T01:57:31;100945.13;;;5.12;54.78
47280;BME280;34064;44.942;0.008;2023-02-04T01:59:58;100946.00;;;5.11;54.78
47280;BME280;34064;44.942;0.008;2023-02-04T02:02:46;100941.63;;;5.10;55.03
47280;BME280;34064;44.942;0.008;2023-02-04T02:05:20;100940.78;;;5.08;55.01
47280;BME280;34064;44.942;0.008;2023-02-04T02:07:51;100939.94;;;5.07;55.02
47280;BME280;34064;44.942;0.008;2023-02-04T02:10:19;100939.94;;;5.06;55.04
47280;BME280;34064;44.942;0.008;2023-02-04T02:12:46;100949.66;;;5.04;55.41
47280;BME280;34064;44.942;0.008;2023-02-04T02:15:15;100941.84;;;4.99;55.45
47280;BME280;34064;44.942;0.008;2023-02-04T02:17:42;100939.22;;;4.97;55.21
47280;BME280;34064;44.942;0.008;2023-02-04T02:20:11;100936.63;;;4.96;55.03
47280;BME280;34064;44.942;0.008;2023-02-04T02:25:30;100929.59;;;4.96;55.21
47280;BME280;34064;44.942;0.008;2023-02-04T02:27:58;100929.63;;;4.95;55.16
47280;BME280;34064;44.942;0.008;2023-02-04T02:30:27;100930.56;;;4.92;55.15
47280;BME280;34064;44.942;0.008;2023-02-04T02:32:55;100928.81;;;4.91;54.97
47280;BME280;34064;44.942;0.008;2023-02-04T02:35:24;100941.19;;;4.88;55.23
47280;BME280;34064;44.942;0.008;2023-02-04T02:37:51;100935.13;;;4.82;55.11
47280;BME280;34064;44.942;0.008;2023-02-04T02:40:18;100936.06;;;4.80;55.15
47280;BME280;34064;44.942;0.008;2023-02-04T02:42:48;100931.72;;;4.77;55.17
47280;BME280;34064;44.942;0.008;2023-02-04T02:45:27;100936.13;;;4.77;54.99
47280;BME280;34064;44.942;0.008;2023-02-04T02:47:59;100923.88;;;4.76;55.07
47280;BME280;34064;44.942;0.008;2023-02-04T02:50:31;100925.66;;;4.74;55.18
47280;BME280;34064;44.942;0.008;2023-02-04T02:53:00;100932.75;;;4.68;55.45
47280;BME280;34064;44.942;0.008;2023-02-04T02:55:30;100934.56;;;4.66;55.23
47280;BME280;34064;44.942;0.008;2023-02-04T02:57:57;100931.09;;;4.64;54.96
47280;BME280;34064;44.942;0.008;2023-02-04T03:00:27;100931.09;;;4.64;55.18
47280;BME280;34064;44.942;0.008;2023-02-04T03:03:04;100923.19;;;4.64;55.20
47280;BME280;34064;44.942;0.008;2023-02-04T03:05:37;100924.03;;;4.65;54.99
47280;BME280;34064;44.942;0.008;2023-02-04T03:08:06;100924.03;;;4.65;55.09
47280;BME280;34064;44.942;0.008;2023-02-04T03:10:35;100921.44;;;4.63;55.19
47280;BME280;34064;44.942;0.008;2023-02-04T03:13:02;100923.22;;;4.63;54.95
47280;BME280;34064;44.942;0.008;2023-02-04T03:15:29;100920.59;;;4.61;55.33
47280;BME280;34064;44.942;0.008;2023-02-04T03:17:57;100918.84;;;4.60;55.24
47280;BME280;34064;44.942;0.008;2023-02-04T03:20:26;100915.38;;;4.58;55.40
47280;BME280;34064;44.942;0.008;2023-02-04T03:22:54;100924.25;;;4.54;55.28
47280;BME280;34064;44.942;0.008;2023-02-04T03:25:20;100926.16;;;4.46;55.51
47280;BME280;34064;44.942;0.008;2023-02-04T03:27:54;100923.59;;;4.41;55.37
47280;BME280;34064;44.942;0.008;2023-02-04T03:30:21;100921.03;;;4.36;55.37
47280;BME280;34064;44.942;0.008;2023-02-04T03:32:48;100932.50;;;4.32;55.20
47280;BME280;34064;44.942;0.008;2023-02-04T03:35:15;100928.19;;;4.28;55.74
47280;BME280;34064;44.942;0.008;2023-02-04T03:37:42;100928.25;;;4.25;55.69
47280;BME280;34064;44.942;0.008;2023-02-04T03:40:09;100930.09;;;4.20;55.51
47280;BME280;34064;44.942;0.008;2023-02-04T03:42:36;100926.66;;;4.15;55.70
47280;BME280;34064;44.942;0.008;2023-02-04T03:45:02;100925.88;;;4.10;55.53
47280;BME280;34064;44.942;0.008;2023-02-04T03:47:29;100928.56;;;4.05;55.37
47280;BME280;34064;44.942;0.008;2023-02-04T03:49:55;100930.41;;;3.98;55.80
47280;BME280;34064;44.942;0.008;2023-02-04T03:52:22;100939.25;;;3.94;55.93
47280;BME280;34064;44.942;0.008;2023-02-04T03:54:48;100942.00;;;3.86;56.08
47280;BME280;34064;44.942;0.008;2023-02-04T03:57:14;100940.28;;;3.82;55.92
47280;BME280;34064;44.942;0.008;2023-02-04T03:59:41;100942.97;;;3.81;56.08
47280;BME280;34064;44.942;0.008;2023-02-04T04:02:07;100953.50;;;3.78;56.04
47280;BME280;34064;44.942;0.008;2023-02-04T04:04:34;100943.91;;;3.73;55.74
47280;BME280;34064;44.942;0.008;2023-02-04T04:07:00;100953.63;;;3.68;55.94
47280;BME280;34064;44.942;0.008;2023-02-04T04:09:26;100951.91;;;3.67;55.51
47280;BME280;34064;44.942;0.008;2023-02-04T04:11:53;100951.91;;;3.67;55.71
47280;BME280;34064;44.942;0.008;2023-02-04T04:14:19;100955.41;;;3.66;55.83
47280;BME280;34064;44.942;0.008;2023-02-04T04:16:46;100955.47;;;3.63;55.69
47280;BME280;34064;44.942;0.008;2023-02-04T04:19:12;100951.09;;;3.61;55.58
47280;BME280;34064;44.942;0.008;2023-02-04T04:21:38;100948.50;;;3.59;55.66
47280;BME280;34064;44.942;0.008;2023-02-04T04:24:05;100953.75;;;3.59;55.74
47280;BME280;34064;44.942;0.008;2023-02-04T04:26:31;100955.50;;;3.60;55.88
47280;BME280;34064;44.942;0.008;2023-02-04T04:28:58;100953.75;;;3.59;55.70
47280;BME280;34064;44.942;0.008;2023-02-04T04:31:24;100960.81;;;3.55;55.84
47280;BME280;34064;44.942;0.008;2023-02-04T04:33:51;100963.47;;;3.52;56.05
47280;BME280;34064;44.942;0.008;2023-02-04T04:36:19;100963.53;;;3.48;55.94
47280;BME280;34064;44.942;0.008;2023-02-04T04:38:46;100963.59;;;3.45;55.81
47280;BME280;34064;44.942;0.008;2023-02-04T04:41:14;100963.59;;;3.43;55.89
47280;BME280;34064;44.942;0.008;2023-02-04T04:43:40;100962.78;;;3.39;55.87
47280;BME280;34064;44.942;0.008;2023-02-04T04:46:08;100961.91;;;3.39;55.99
47280;BME280;34064;44.942;0.008;2023-02-04T04:48:38;100961.91;;;3.39;56.22
47280;BME280;34064;44.942;0.008;2023-02-04T04:51:06;100961.03;;;3.38;56.23
47280;BME280;34064;44.942;0.008;2023-02-04T04:53:34;100961.91;;;3.37;56.04
47280;BME280;34064;44.942;0.008;2023-02-04T04:56:01;100969.00;;;3.32;56.33
47280;BME280;34064;44.942;0.008;2023-02-04T04:58:28;100965.50;;;3.33;56.12
47280;BME280;34064;44.942;0.008;2023-02-04T05:00:54;100968.13;;;3.32;56.17
47280;BME280;34064;44.942;0.008;2023-02-04T05:03:20;100968.13;;;3.30;55.82
47280;BME280;34064;44.942;0.008;2023-02-04T05:05:47;100974.34;;;3.21;56.36
47280;BME280;34064;44.942;0.008;2023-02-04T05:08:13;100978.75;;;3.21;56.08
47280;BME280;34064;44.942;0.008;2023-02-04T05:10:42;100978.78;;;3.18;56.27
47280;BME280;34064;44.942;0.008;2023-02-04T05:13:09;100974.44;;;3.15;56.29
47280;BME280;34064;44.942;0.008;2023-02-04T05:15:36;100984.97;;;3.12;56.40
47280;BME280;34064;44.942;0.008;2023-02-04T05:18:03;100990.25;;;3.10;56.29
47280;BME280;34064;44.942;0.008;2023-02-04T05:20:30;100983.28;;;3.08;55.98
47280;BME280;34064;44.942;0.008;2023-02-04T05:22:56;100988.56;;;3.05;55.85
47280;BME280;34064;44.942;0.008;2023-02-04T05:25:26;100985.97;;;3.03;55.79
47280;BME280;34064;44.942;0.008;2023-02-04T05:27:54;100990.31;;;3.03;55.92
47280;BME280;34064;44.942;0.008;2023-02-04T05:30:20;100991.22;;;3.03;56.04
47280;BME280;34064;44.942;0.008;2023-02-04T05:32:46;100992.97;;;3.01;55.67
47280;BME280;34064;44.942;0.008;2023-02-04T05:35:14;100998.25;;;3.00;55.89
47280;BME280;34064;44.942;0.008;2023-02-04T05:37:41;100999.16;;;2.95;55.80
47280;BME280;34064;44.942;0.008;2023-02-04T05:40:08;101002.66;;;2.94;56.03
47280;BME280;34064;44.942;0.008;2023-02-04T05:42:34;100996.56;;;2.94;56.37
47280;BME280;34064;44.942;0.008;2023-02-04T05:45:01;101000.06;;;2.93;56.47
47280;BME280;34064;44.942;0.008;2023-02-04T05:47:29;101002.69;;;2.93;56.47
47280;BME280;34064;44.942;0.008;2023-02-04T05:49:56;101004.41;;;2.95;56.23
47280;BME280;34064;44.942;0.008;2023-02-04T05:52:24;101005.31;;;2.93;56.26
47280;BME280;34064;44.942;0.008;2023-02-04T05:54:51;101007.06;;;2.91;56.34
47280;BME280;34064;44.942;0.008;2023-02-04T05:57:19;101017.63;;;2.88;56.07
47280;BME280;34064;44.942;0.008;2023-02-04T05:59:46;101010.66;;;2.84;56.15
47280;BME280;34064;44.942;0.008;2023-02-04T06:02:14;101010.66;;;2.84;56.13
47280;BME280;34064;44.942;0.008;2023-02-04T06:04:41;101015.94;;;2.82;56.10
47280;BME280;34064;44.942;0.008;2023-02-04T06:07:09;101012.41;;;2.81;56.19
47280;BME280;34064;44.942;0.008;2023-02-04T06:09:36;101013.34;;;2.77;56.08
47280;BME280;34064;44.942;0.008;2023-02-04T06:12:04;101013.34;;;2.77;56.02
47280;BME280;34064;44.942;0.008;2023-02-04T06:14:32;101022.09;;;2.76;55.84
47280;BME280;34064;44.942;0.008;2023-02-04T06:16:59;101021.25;;;2.74;56.16
47280;BME280;34064;44.942;0.008;2023-02-04T06:19:26;101020.38;;;2.72;56.14
47280;BME280;34064;44.942;0.008;2023-02-04T06:21:54;101019.53;;;2.72;55.98
47280;BME280;34064;44.942;0.008;2023-02-04T06:24:22;101024.75;;;2.70;55.97
47280;BME280;34064;44.942;0.008;2023-02-04T06:26:49;101024.75;;;2.70;55.95
47280;BME280;34064;44.942;0.008;2023-02-04T06:29:17;101030.94;;;2.66;56.14
47280;BME280;34064;44.942;0.008;2023-02-04T06:31:47;101031.84;;;2.63;56.01
47280;BME280;34064;44.942;0.008;2023-02-04T06:34:15;101037.09;;;2.62;55.86
47280;BME280;34064;44.942;0.008;2023-02-04T06:36:43;101035.34;;;2.62;56.04
47280;BME280;34064;44.942;0.008;2023-02-04T06:39:10;101026.59;;;2.62;56.00
47280;BME280;34064;44.942;0.008;2023-02-04T06:41:38;101036.19;;;2.63;56.04
47280;BME280;34064;44.942;0.008;2023-02-04T06:44:05;101030.09;;;2.62;56.10
47280;BME280;34064;44.942;0.008;2023-02-04T06:46:33;101040.59;;;2.61;56.03
47280;BME280;34064;44.942;0.008;2023-02-04T06:49:01;101044.09;;;2.60;56.16
47280;BME280;34064;44.942;0.008;2023-02-04T06:51:28;101037.13;;;2.59;56.52
47280;BME280;34064;44.942;0.008;2023-02-04T06:53:55;101045.00;;;2.59;56.04
47280;BME280;34064;44.942;0.008;2023-02-04T06:56:22;101041.50;;;2.57;56.27
47280;BME280;34064;44.942;0.008;2023-02-04T06:58:49;101038.03;;;2.55;55.94
47280;BME280;34064;44.942;0.008;2023-02-04T07:01:15;101046.78;;;2.50;55.99
47280;BME280;34064;44.942;0.008;2023-02-04T07:03:41;101046.81;;;2.49;56.22
47280;BME280;34064;44.942;0.008;2023-02-04T07:06:08;101056.47;;;2.45;56.32
47280;BME280;34064;44.942;0.008;2023-02-04T07:08:34;101049.47;;;2.44;56.49
47280;BME280;34064;44.942;0.008;2023-02-04T07:11:00;101048.56;;;2.47;56.49
47280;BME280;34064;44.942;0.008;2023-02-04T07:13:27;101050.31;;;2.49;56.35
47280;BME280;34064;44.942;0.008;2023-02-04T07:15:53;101049.41;;;2.50;56.64
47280;BME280;34064;44.942;0.008;2023-02-04T07:18:19;101042.41;;;2.53;56.70
47280;BME280;34064;44.942;0.008;2023-02-04T07:20:46;101038.91;;;2.54;56.47
47280;BME280;34064;44.942;0.008;2023-02-04T07:23:12;101045.91;;;2.55;56.84
47280;BME280;34064;44.942;0.008;2023-02-04T07:25:39;101039.75;;;2.59;56.34
47280;BME280;34064;44.942;0.008;2023-02-04T07:28:06;101039.72;;;2.62;56.51
47280;BME280;34064;44.942;0.008;2023-02-04T07:30:32;101047.56;;;2.68;56.82
47280;BME280;34064;44.942;0.008;2023-02-04T07:32:59;101038.75;;;2.72;57.07
47280;BME280;34064;44.942;0.008;2023-02-04T07:35:25;101034.34;;;2.77;57.03
47280;BME280;34064;44.942;0.008;2023-02-04T07:37:52;101031.66;;;2.80;57.60
47280;BME280;34064;44.942;0.008;2023-02-04T07:40:18;101035.09;;;2.89;56.68
47280;BME280;34064;44.942;0.008;2023-02-04T07:42:44;101029.81;;;2.93;56.78
47280;BME280;34064;44.942;0.008;2023-02-04T07:45:11;101028.94;;;2.96;57.28
47280;BME280;34064;44.942;0.008;2023-02-04T07:47:37;101021.00;;;2.99;57.04
47280;BME280;34064;44.942;0.008;2023-02-04T07:50:03;101021.84;;;3.03;56.70
47280;BME280;34064;44.942;0.008;2023-02-04T07:52:30;101013.91;;;3.07;57.02
47280;BME280;34064;44.942;0.008;2023-02-04T07:54:56;101016.50;;;3.14;57.03
47280;BME280;34064;44.942;0.008;2023-02-04T07:57:23;101012.94;;;3.18;56.83
47280;BME280;34064;44.942;0.008;2023-02-04T07:59:49;101006.75;;;3.23;56.64
47280;BME280;34064;44.942;0.008;2023-02-04T08:02:15;101006.69;;;3.30;57.01
47280;BME280;34064;44.942;0.008;2023-02-04T08:04:42;101003.13;;;3.35;57.51
47280;BME280;34064;44.942;0.008;2023-02-04T08:07:08;101006.56;;;3.40;57.58
47280;BME280;34064;44.942;0.008;2023-02-04T08:09:34;100995.97;;;3.47;57.72
47280;BME280;34064;44.942;0.008;2023-02-04T08:12:01;100997.66;;;3.54;57.88
47280;BME280;34064;44.942;0.008;2023-02-04T08:14:27;100995.81;;;3.59;57.22
47280;BME280;34064;44.942;0.008;2023-02-04T08:16:53;100998.34;;;3.65;57.51
47280;BME280;34064;44.942;0.008;2023-02-04T08:19:20;100990.44;;;3.68;57.16
47280;BME280;34064;44.942;0.008;2023-02-04T08:21:46;100986.88;;;3.74;57.64
47280;BME280;34064;44.942;0.008;2023-02-04T08:24:14;100995.56;;;3.78;57.47
47280;BME280;34064;44.942;0.008;2023-02-04T08:26:42;100985.88;;;3.81;57.82
47280;BME280;34064;44.942;0.008;2023-02-04T08:29:09;100987.50;;;3.92;57.74
47280;BME280;34064;44.942;0.008;2023-02-04T08:31:36;100990.91;;;3.98;57.67
47280;BME280;34064;44.942;0.008;2023-02-04T08:34:03;100980.28;;;4.06;57.50
47280;BME280;34064;44.942;0.008;2023-02-04T08:36:30;100981.94;;;4.12;57.68
47280;BME280;34064;44.942;0.008;2023-02-04T08:38:57;100975.75;;;4.16;57.66
47280;BME280;34064;44.942;0.008;2023-02-04T08:41:23;100981.78;;;4.22;57.77
47280;BME280;34064;44.942;0.008;2023-02-04T08:43:49;100981.69;;;4.29;57.76
47280;BME280;34064;44.942;0.008;2023-02-04T08:46:16;100977.19;;;4.35;57.83
47280;BME280;34064;44.942;0.008;2023-02-04T08:48:42;100979.72;;;4.43;57.92
47280;BME280;34064;44.942;0.008;2023-02-04T08:51:09;100981.31;;;4.52;57.83
47280;BME280;34064;44.942;0.008;2023-02-04T08:53:35;100976.78;;;4.60;58.74
47280;BME280;34064;44.942;0.008;2023-02-04T08:56:02;100984.56;;;4.68;58.55
47280;BME280;34064;44.942;0.008;2023-02-04T08:58:29;100979.97;;;4.78;58.83
47280;BME280;34064;44.942;0.008;2023-02-04T09:00:55;100974.53;;;4.87;58.57
47280;BME280;34064;44.942;0.008;2023-02-04T09:03:21;100975.22;;;5.00;59.15
47280;BME280;34064;44.942;0.008;2023-02-04T09:05:48;100967.97;;;5.10;59.42
47280;BME280;34064;44.942;0.008;2023-02-04T09:08:14;100967.84;;;5.18;59.38
47280;BME280;34064;44.942;0.008;2023-02-04T09:10:41;100970.31;;;5.25;59.28
47280;BME280;34064;44.942;0.008;2023-02-04T09:13:07;100967.47;;;5.35;59.32
47280;BME280;34064;44.942;0.008;2023-02-04T09:15:37;100961.13;;;5.45;59.48
47280;BME280;34064;44.942;0.008;2023-02-04T09:18:03;100955.75;;;5.50;59.73
47280;BME280;34064;44.942;0.008;2023-02-04T09:20:39;100956.41;;;5.61;59.85
47280;BME280;34064;44.942;0.008;2023-02-04T09:23:05;100951.91;;;5.66;60.31
47280;BME280;34064;44.942;0.008;2023-02-04T09:25:35;100940.28;;;5.75;60.15
47280;BME280;34064;44.942;0.008;2023-02-04T09:28:02;100941.84;;;5.84;60.47
47280;BME280;34064;44.942;0.008;2023-02-04T09:30:28;100938.09;;;5.92;60.50
47280;BME280;34064;44.942;0.008;2023-02-04T09:32:54;100933.56;;;6.01;60.55
47280;BME280;34064;44.942;0.008;2023-02-04T09:35:21;100931.63;;;6.09;60.72
47280;BME280;34064;44.942;0.008;2023-02-04T09:37:47;100920.84;;;6.18;60.87
47280;BME280;34064;44.942;0.008;2023-02-04T09:40:15;100924.06;;;6.30;60.45
47280;BME280;34064;44.942;0.008;2023-02-04T09:42:48;100925.66;;;6.37;60.48
47280;BME280;34064;44.942;0.008;2023-02-04T09:45:18;100920.16;;;6.46;60.66
47280;BME280;34064;44.942;0.008;2023-02-04T09:47:47;100919.97;;;6.52;60.82
47280;BME280;34064;44.942;0.008;2023-02-04T09:50:15;100923.28;;;6.61;60.65
47280;BME280;34064;44.942;0.008;2023-02-04T09:52:42;100917.03;;;6.65;60.93
47280;BME280;34064;44.942;0.008;2023-02-04T09:55:14;100922.84;;;6.76;60.91
47280;BME280;34064;44.942;0.008;2023-02-04T09:57:41;100908.59;;;6.83;60.55
47280;BME280;34064;44.942;0.008;2023-02-04T10:00:15;100911.78;;;6.95;60.96
47280;BME280;34064;44.942;0.008;2023-02-04T10:02:42;100909.81;;;7.03;61.05
47280;BME280;34064;44.942;0.008;2023-02-04T10:05:13;100913.09;;;7.11;60.77
47280;BME280;34064;44.942;0.008;2023-02-04T10:07:40;100911.09;;;7.20;60.66
47280;BME280;34064;44.942;0.008;2023-02-04T10:10:11;100914.38;;;7.28;61.10
47280;BME280;34064;44.942;0.008;2023-02-04T10:12:38;100897.47;;;7.33;60.80
47280;BME280;34064;44.942;0.008;2023-02-04T10:15:05;100906.03;;;7.42;61.04
47280;BME280;34064;44.942;0.008;2023-02-04T10:17:36;100896.16;;;7.48;60.98
47280;BME280;34064;44.942;0.008;2023-02-04T10:20:02;100904.72;;;7.57;60.84
47280;BME280;34064;44.942;0.008;2023-02-04T10:22:29;100893.09;;;7.62;60.87
47280;BME280;34064;44.942;0.008;2023-02-04T10:24:55;100894.63;;;7.70;61.03
47280;BME280;34064;44.942;0.008;2023-02-04T10:27:22;100890.72;;;7.81;61.49
47280;BME280;34064;44.942;0.008;2023-02-04T10:29:56;100886.84;;;7.92;61.12
47280;BME280;34064;44.942;0.008;2023-02-04T10:32:30;100885.75;;;7.99;61.22
47280;BME280;34064;44.942;0.008;2023-02-04T10:34:59;100883.72;;;8.07;61.10
47280;BME280;34064;44.942;0.008;2023-02-04T10:37:26;100872.84;;;8.17;61.31
47280;BME280;34064;44.942;0.008;2023-02-04T10:39:52;100865.50;;;8.25;61.02
47280;BME280;34064;44.942;0.008;2023-02-04T10:42:29;100869.66;;;8.32;61.71
47280;BME280;34064;44.942;0.008;2023-02-04T10:44:56;100864.03;;;8.41;61.44
47280;BME280;34064;44.942;0.008;2023-02-04T10:47:25;100868.13;;;8.52;61.30
47280;BME280;34064;44.942;0.008;2023-02-04T10:49:54;100862.41;;;8.64;61.22
47280;BME280;34064;44.942;0.008;2023-02-04T10:52:22;100850.59;;;8.73;61.17
47280;BME280;34064;44.942;0.008;2023-02-04T10:54:51;100849.41;;;8.82;61.08
47280;BME280;34064;44.942;0.008;2023-02-04T10:59:49;100859.34;;;9.00;60.77
47280;BME280;34064;44.942;0.008;2023-02-04T11:02:42;100851.97;;;9.07;60.95
47280;BME280;34064;44.942;0.008;2023-02-04T11:05:13;100845.41;;;9.17;60.68
47280;BME280;34064;44.942;0.008;2023-02-04T11:07:40;100848.66;;;9.26;60.78
47280;BME280;34064;44.942;0.008;2023-02-04T11:10:11;100834.88;;;9.40;60.57
47280;BME280;34064;44.942;0.008;2023-02-04T11:12:44;100825.72;;;9.47;60.43
47280;BME280;34064;44.942;0.008;2023-02-04T11:18:03;100821.53;;;9.63;60.64
47280;BME280;34064;44.942;0.008;2023-02-04T11:20:32;100819.41;;;9.72;60.47
47280;BME280;34064;44.942;0.008;2023-02-04T11:25:39;100806.47;;;9.86;60.25
47280;BME280;34064;44.942;0.008;2023-02-04T11:28:24;100807.81;;;9.96;59.79
47280;BME280;34064;44.942;0.008;2023-02-04T11:31:01;100807.66;;;9.99;59.68
47280;BME280;34064;44.942;0.008;2023-02-04T11:33:40;100802.16;;;10.04;60.03
47280;BME280;34064;44.942;0.008;2023-02-04T11:36:10;100807.25;;;10.09;59.80
47280;BME280;34064;44.942;0.008;2023-02-04T11:38:38;100798.97;;;10.17;59.95
47280;BME280;34064;44.942;0.008;2023-02-04T11:41:05;100797.78;;;10.24;59.72
47280;BME280;34064;44.942;0.008;2023-02-04T11:43:34;100784.16;;;10.32;59.70
47280;BME280;34064;44.942;0.008;2023-02-04T11:46:14;100786.56;;;10.38;59.48
47280;BME280;34064;44.942;0.008;2023-02-04T11:48:42;100789.03;;;10.42;59.38
47280;BME280;34064;44.942;0.008;2023-02-04T11:51:13;100782.66;;;10.47;59.49
47280;BME280;34064;44.942;0.008;2023-02-04T11:53:40;100775.31;;;10.52;59.44
47280;BME280;34064;44.942;0.008;2023-02-04T11:56:15;100774.09;;;10.59;59.26
47280;BME280;34064;44.942;0.008;2023-02-04T11:58:41;100765.94;;;10.64;59.07
47280;BME280;34064;44.942;0.008;2023-02-04T12:01:20;100772.72;;;10.71;59.26
47280;BME280;34064;44.942;0.008;2023-02-04T12:03:55;100776.09;;;10.74;59.09
47280;BME280;34064;44.942;0.008;2023-02-04T12:06:27;100769.63;;;10.80;59.08
47280;BME280;34064;44.942;0.008;2023-02-04T12:11:30;100753.97;;;10.93;58.63
47280;BME280;34064;44.942;0.008;2023-02-04T12:14:06;100757.47;;;10.93;58.65
47280;BME280;34064;44.942;0.008;2023-02-04T12:16:46;100749.22;;;11.00;58.91
47280;BME280;34064;44.942;0.008;2023-02-04T12:19:13;100741.97;;;11.03;58.65
47280;BME280;34064;44.942;0.008;2023-02-04T12:21:40;100735.31;;;11.12;58.38
47280;BME280;34064;44.942;0.008;2023-02-04T12:24:07;100732.53;;;11.15;58.30
47280;BME280;34064;44.942;0.008;2023-02-04T12:26:33;100731.59;;;11.16;58.46
47280;BME280;34064;44.942;0.008;2023-02-04T12:29:00;100715.19;;;11.26;58.72
47280;BME280;34064;44.942;0.008;2023-02-04T12:31:32;100714.88;;;11.32;58.55
47280;BME280;34064;44.942;0.008;2023-02-04T12:33:59;100713.69;;;11.37;58.29
47280;BME280;34064;44.942;0.008;2023-02-04T12:36:26;100705.41;;;11.44;58.13
47280;BME280;34064;44.942;0.008;2023-02-04T12:38:55;100710.59;;;11.47;57.76
47280;BME280;34064;44.942;0.008;2023-02-04T12:41:24;100702.22;;;11.54;57.62
47280;BME280;34064;44.942;0.008;2023-02-04T12:43:50;100697.84;;;11.53;57.67
47280;BME280;34064;44.942;0.008;2023-02-04T12:46:17;100697.38;;;11.63;57.70
47280;BME280;34064;44.942;0.008;2023-02-04T12:48:44;100686.72;;;11.63;57.52
47280;BME280;34064;44.942;0.008;2023-02-04T12:51:10;100692.59;;;11.69;57.37
47280;BME280;34064;44.942;0.008;2023-02-04T12:53:36;100688.13;;;11.70;57.23
47280;BME280;34064;44.942;0.008;2023-02-04T12:56:03;100672.94;;;11.72;57.46
47280;BME280;34064;44.942;0.008;2023-02-04T12:58:30;100672.47;;;11.81;57.34
47280;BME280;34064;44.942;0.008;2023-02-04T13:00:56;100673.16;;;11.85;57.35
47280;BME280;34064;44.942;0.008;2023-02-04T13:03:22;100673.94;;;11.87;57.22
47280;BME280;34064;44.942;0.008;2023-02-04T13:05:50;100665.72;;;11.92;57.29
47280;BME280;34064;44.942;0.008;2023-02-04T13:08:16;100659.84;;;12.02;56.85
47280;BME280;34064;44.942;0.008;2023-02-04T13:10:42;100660.13;;;12.14;56.72
47280;BME280;34064;44.942;0.008;2023-02-04T13:13:09;100652.00;;;12.17;56.28
47280;BME280;34064;44.942;0.008;2023-02-04T13:15:35;100658.25;;;12.16;56.44
47280;BME280;34064;44.942;0.008;2023-02-04T13:18:01;100656.19;;;12.21;56.58